VJC671 VVNB-VVDN
Flight info
| Callsign | VJC671 |
|---|---|
| Flight time | 1h 15m |
| Altitude | 34000 |
| Route | NAH3A NAH Q1 CAHEO CAHEO1D |
| Aircraft | A339/H-SADE1E2E3GHIJ3J5M1P2RWXY/LB2D1 |
Departure
| Time | 2026-05-06 14:20 |
|---|---|
| Airport | Noi Bai International Airport (VVNB) |
Arrival
| Time | 2026-05-06 15:35 |
|---|---|
| Airport | Da Nang International Airport (VVDN) |
| Time | Latitude | Longitude | Altitude | Speed | Heading |
|---|---|---|---|---|---|
| 2026-05-06 14:11 | 21.21789 | 105.79732 | 55 ft | 0 kts | 198° |
| 2026-05-06 14:11 | 21.21793 | 105.79733 | 34 ft | 1 kts | 198° |
| 2026-05-06 14:12 | 21.21803 | 105.79737 | 33 ft | 1 kts | 198° |
| 2026-05-06 14:12 | 21.21813 | 105.79740 | 55 ft | 1 kts | 198° |
| 2026-05-06 14:12 | 21.21825 | 105.79744 | 57 ft | 2 kts | 198° |
| 2026-05-06 14:12 | 21.21838 | 105.79749 | 47 ft | 2 kts | 198° |
| 2026-05-06 14:13 | 21.21852 | 105.79753 | 47 ft | 2 kts | 206° |
| 2026-05-06 14:13 | 21.21865 | 105.79759 | 47 ft | 2 kts | 221° |
| 2026-05-06 14:13 | 21.21876 | 105.79769 | 47 ft | 2 kts | 235° |
| 2026-05-06 14:13 | 21.21884 | 105.79781 | 47 ft | 2 kts | 253° |
| 2026-05-06 14:14 | 21.21888 | 105.79795 | 47 ft | 0 kts | 271° |
| 2026-05-06 14:15 | 21.21888 | 105.79792 | 47 ft | 2 kts | 271° |
| 2026-05-06 14:16 | 21.21889 | 105.79760 | 50 ft | 7 kts | 272° |
| 2026-05-06 14:16 | 21.21900 | 105.79699 | 52 ft | 9 kts | 284° |
| 2026-05-06 14:16 | 21.21921 | 105.79627 | 54 ft | 11 kts | 290° |
| 2026-05-06 14:16 | 21.21947 | 105.79546 | 50 ft | 12 kts | 288° |
| 2026-05-06 14:17 | 21.21975 | 105.79456 | 54 ft | 14 kts | 287° |
| 2026-05-06 14:17 | 21.22002 | 105.79349 | 54 ft | 16 kts | 285° |
| 2026-05-06 14:17 | 21.22032 | 105.79239 | 54 ft | 15 kts | 287° |
| 2026-05-06 14:17 | 21.22066 | 105.79125 | 48 ft | 17 kts | 288° |
| 2026-05-06 14:18 | 21.22103 | 105.79002 | 53 ft | 18 kts | 287° |
| 2026-05-06 14:18 | 21.22147 | 105.78873 | 52 ft | 18 kts | 305° |
| 2026-05-06 14:18 | 21.22239 | 105.78808 | 47 ft | 15 kts | 309° |
| 2026-05-06 14:18 | 21.22286 | 105.78706 | 48 ft | 15 kts | 286° |
| 2026-05-06 14:19 | 21.22334 | 105.78610 | 53 ft | 15 kts | 331° |
| 2026-05-06 14:19 | 21.22424 | 105.78634 | 50 ft | 14 kts | 18° |
| 2026-05-06 14:19 | 21.22468 | 105.78689 | 48 ft | 7 kts | 101° |
| 2026-05-06 14:19 | 21.22444 | 105.78757 | 55 ft | 22 kts | 108° |
| 2026-05-06 14:20 | 21.22316 | 105.79187 | 52 ft | 102 kts | 107° |
| 2026-05-06 14:20 | 21.22016 | 105.80161 | 68 ft | 168 kts | 102° |
| 2026-05-06 14:20 | 21.21794 | 105.81349 | 954 ft | 147 kts | 103° |
| 2026-05-06 14:20 | 21.21629 | 105.82374 | 1952 ft | 130 kts | 111° |
| 2026-05-06 14:21 | 21.21467 | 105.83345 | 2557 ft | 144 kts | 117° |
| 2026-05-06 14:21 | 21.21245 | 105.84379 | 2341 ft | 145 kts | 117° |
| 2026-05-06 14:21 | 21.20857 | 105.85523 | 1640 ft | 197 kts | 116° |
| 2026-05-06 14:21 | 21.20371 | 105.87029 | 1887 ft | 227 kts | 114° |
| 2026-05-06 14:22 | 21.19797 | 105.88683 | 2192 ft | 248 kts | 115° |
| 2026-05-06 14:22 | 21.19196 | 105.90461 | 2752 ft | 256 kts | 112° |
| 2026-05-06 14:22 | 21.18638 | 105.92290 | 3356 ft | 262 kts | 111° |
| 2026-05-06 14:22 | 21.18112 | 105.94144 | 3914 ft | 269 kts | 110° |
| 2026-05-06 14:23 | 21.17584 | 105.96086 | 4551 ft | 272 kts | 109° |
| 2026-05-06 14:23 | 21.16937 | 105.97861 | 4997 ft | 277 kts | 124° |
| 2026-05-06 14:23 | 21.15682 | 105.99298 | 5483 ft | 277 kts | 148° |
| 2026-05-06 14:23 | 21.13929 | 106.00084 | 6047 ft | 275 kts | 172° |
| 2026-05-06 14:24 | 21.12029 | 106.00324 | 6584 ft | 278 kts | 180° |
| 2026-05-06 14:24 | 21.10091 | 106.00449 | 7153 ft | 281 kts | 180° |
| 2026-05-06 14:24 | 21.08119 | 106.00619 | 7706 ft | 285 kts | 178° |
| 2026-05-06 14:24 | 21.06133 | 106.00857 | 8281 ft | 289 kts | 176° |
| 2026-05-06 14:25 | 21.04130 | 106.01143 | 8861 ft | 292 kts | 175° |
| 2026-05-06 14:25 | 21.02096 | 106.01455 | 9451 ft | 296 kts | 175° |
| 2026-05-06 14:25 | 21.00040 | 106.01776 | 10003 ft | 300 kts | 175° |
| 2026-05-06 14:25 | 20.97919 | 106.02104 | 10211 ft | 317 kts | 175° |
| 2026-05-06 14:26 | 20.95675 | 106.02448 | 10368 ft | 334 kts | 174° |
| 2026-05-06 14:26 | 20.93327 | 106.02808 | 10553 ft | 348 kts | 174° |
| 2026-05-06 14:26 | 20.90915 | 106.03180 | 11018 ft | 352 kts | 174° |
| 2026-05-06 14:26 | 20.88476 | 106.03557 | 11535 ft | 355 kts | 174° |
| 2026-05-06 14:27 | 20.86028 | 106.03934 | 12038 ft | 358 kts | 174° |
| 2026-05-06 14:27 | 20.83556 | 106.04314 | 12543 ft | 360 kts | 174° |
| 2026-05-06 14:27 | 20.81064 | 106.04696 | 13045 ft | 364 kts | 174° |
| 2026-05-06 14:27 | 20.78549 | 106.05080 | 13548 ft | 366 kts | 174° |
| 2026-05-06 14:28 | 20.76014 | 106.05468 | 14004 ft | 369 kts | 174° |
| 2026-05-06 14:28 | 20.73455 | 106.05860 | 14456 ft | 372 kts | 174° |
| 2026-05-06 14:28 | 20.70886 | 106.06252 | 14911 ft | 374 kts | 174° |
| 2026-05-06 14:28 | 20.68312 | 106.06646 | 15348 ft | 377 kts | 174° |
| 2026-05-06 14:29 | 20.65697 | 106.07045 | 15793 ft | 379 kts | 174° |
| 2026-05-06 14:29 | 20.63081 | 106.07444 | 16229 ft | 381 kts | 174° |
| 2026-05-06 14:29 | 20.60445 | 106.07846 | 16656 ft | 384 kts | 174° |
| 2026-05-06 14:29 | 20.57789 | 106.08250 | 17081 ft | 386 kts | 174° |
| 2026-05-06 14:30 | 20.55129 | 106.08684 | 17494 ft | 389 kts | 173° |
| 2026-05-06 14:30 | 20.52444 | 106.09186 | 17918 ft | 392 kts | 172° |
| 2026-05-06 14:30 | 20.49755 | 106.09704 | 18332 ft | 394 kts | 172° |
| 2026-05-06 14:30 | 20.47089 | 106.10214 | 18700 ft | 395 kts | 172° |
| 2026-05-06 14:31 | 20.44379 | 106.10725 | 19066 ft | 397 kts | 172° |
| 2026-05-06 14:31 | 20.41688 | 106.11225 | 19423 ft | 400 kts | 172° |
| 2026-05-06 14:31 | 20.38962 | 106.11882 | 19775 ft | 404 kts | 166° |
| 2026-05-06 14:31 | 20.36317 | 106.12929 | 20149 ft | 408 kts | 158° |
| 2026-05-06 14:32 | 20.33745 | 106.14244 | 20515 ft | 411 kts | 156° |
| 2026-05-06 14:32 | 20.31161 | 106.15559 | 20884 ft | 413 kts | 156° |
| 2026-05-06 14:32 | 20.28552 | 106.16872 | 21255 ft | 416 kts | 157° |
| 2026-05-06 14:32 | 20.25920 | 106.18189 | 21635 ft | 418 kts | 157° |
| 2026-05-06 14:33 | 20.23282 | 106.19506 | 22005 ft | 421 kts | 157° |
| 2026-05-06 14:33 | 20.20627 | 106.20832 | 22383 ft | 423 kts | 157° |
| 2026-05-06 14:33 | 20.17952 | 106.22167 | 22754 ft | 426 kts | 157° |
| 2026-05-06 14:33 | 20.15258 | 106.23512 | 23121 ft | 429 kts | 157° |
| 2026-05-06 14:34 | 20.12544 | 106.24866 | 23484 ft | 431 kts | 157° |
| 2026-05-06 14:34 | 20.10739 | 106.25766 | 23701 ft | 433 kts | 157° |
| 2026-05-06 14:34 | 20.07115 | 106.27574 | 24160 ft | 435 kts | 157° |
| 2026-05-06 14:34 | 20.04371 | 106.28942 | 24495 ft | 436 kts | 157° |
| 2026-05-06 14:35 | 20.01613 | 106.30316 | 24828 ft | 438 kts | 157° |
| 2026-05-06 14:35 | 19.98848 | 106.31693 | 25159 ft | 440 kts | 157° |
| 2026-05-06 14:35 | 19.96064 | 106.33079 | 25492 ft | 442 kts | 157° |
| 2026-05-06 14:35 | 19.94208 | 106.34002 | 25709 ft | 443 kts | 157° |
| 2026-05-06 14:36 | 19.91415 | 106.35393 | 26036 ft | 445 kts | 157° |
| 2026-05-06 14:36 | 19.88600 | 106.36793 | 26369 ft | 447 kts | 157° |
| 2026-05-06 14:36 | 19.85781 | 106.38194 | 26690 ft | 449 kts | 157° |
| 2026-05-06 14:36 | 19.82947 | 106.39602 | 27018 ft | 450 kts | 157° |
| 2026-05-06 14:37 | 19.80099 | 106.41017 | 27319 ft | 452 kts | 157° |
| 2026-05-06 14:37 | 19.77243 | 106.42435 | 27639 ft | 454 kts | 157° |
| 2026-05-06 14:37 | 19.74368 | 106.43862 | 27947 ft | 456 kts | 157° |
| 2026-05-06 14:37 | 19.71467 | 106.45302 | 28265 ft | 458 kts | 157° |
| 2026-05-06 14:38 | 19.68584 | 106.46731 | 28551 ft | 461 kts | 157° |
| 2026-05-06 14:38 | 19.65692 | 106.48165 | 28855 ft | 463 kts | 157° |
| 2026-05-06 14:38 | 19.62760 | 106.49618 | 29156 ft | 464 kts | 157° |
| 2026-05-06 14:38 | 19.59808 | 106.51080 | 29452 ft | 467 kts | 157° |
| 2026-05-06 14:39 | 19.56872 | 106.52534 | 29739 ft | 469 kts | 157° |
| 2026-05-06 14:39 | 19.53907 | 106.54001 | 30029 ft | 471 kts | 157° |
| 2026-05-06 14:39 | 19.50910 | 106.55484 | 30293 ft | 473 kts | 157° |
| 2026-05-06 14:39 | 19.47953 | 106.56946 | 30536 ft | 476 kts | 157° |
| 2026-05-06 14:40 | 19.44921 | 106.58444 | 30812 ft | 478 kts | 157° |
| 2026-05-06 14:40 | 19.41938 | 106.59918 | 31074 ft | 480 kts | 157° |
| 2026-05-06 14:40 | 19.38888 | 106.61424 | 31354 ft | 482 kts | 157° |
| 2026-05-06 14:40 | 19.35830 | 106.62934 | 31617 ft | 484 kts | 157° |
| 2026-05-06 14:41 | 19.32798 | 106.64430 | 31858 ft | 486 kts | 157° |
| 2026-05-06 14:41 | 19.29714 | 106.65951 | 32114 ft | 489 kts | 157° |
| 2026-05-06 14:41 | 19.26648 | 106.67463 | 32360 ft | 490 kts | 157° |
| 2026-05-06 14:41 | 19.23539 | 106.68996 | 32575 ft | 492 kts | 157° |
| 2026-05-06 14:42 | 19.20445 | 106.70506 | 32761 ft | 494 kts | 158° |
| 2026-05-06 14:42 | 19.17292 | 106.71987 | 32926 ft | 495 kts | 158° |
| 2026-05-06 14:42 | 19.14146 | 106.73446 | 33085 ft | 496 kts | 158° |
| 2026-05-06 14:42 | 19.10975 | 106.74918 | 33218 ft | 497 kts | 158° |
| 2026-05-06 14:43 | 19.07813 | 106.76391 | 33354 ft | 498 kts | 158° |
| 2026-05-06 14:43 | 19.04626 | 106.77880 | 33507 ft | 498 kts | 158° |
| 2026-05-06 14:43 | 19.01439 | 106.79372 | 33692 ft | 498 kts | 158° |
| 2026-05-06 14:43 | 18.98298 | 106.80841 | 33853 ft | 498 kts | 158° |
| 2026-05-06 14:44 | 18.91986 | 106.83795 | 33900 ft | 496 kts | 158° |
| 2026-05-06 14:45 | 18.82507 | 106.88223 | 33904 ft | 496 kts | 158° |
| 2026-05-06 14:45 | 18.76187 | 106.91168 | 33899 ft | 497 kts | 158° |
| 2026-05-06 14:46 | 18.69841 | 106.94123 | 33902 ft | 496 kts | 158° |
| 2026-05-06 14:46 | 18.63537 | 106.97057 | 33905 ft | 496 kts | 158° |
| 2026-05-06 14:47 | 18.57243 | 106.99984 | 33904 ft | 496 kts | 158° |
| 2026-05-06 14:47 | 18.50893 | 107.02935 | 33903 ft | 496 kts | 158° |
| 2026-05-06 14:48 | 18.44591 | 107.05861 | 33904 ft | 496 kts | 158° |
| 2026-05-06 14:48 | 18.38566 | 107.08662 | 33903 ft | 496 kts | 158° |
| 2026-05-06 14:49 | 18.32258 | 107.11592 | 33908 ft | 496 kts | 158° |
| 2026-05-06 14:49 | 18.25942 | 107.14524 | 33908 ft | 496 kts | 158° |
| 2026-05-06 14:50 | 18.19602 | 107.17463 | 33904 ft | 496 kts | 158° |
| 2026-05-06 14:50 | 18.13302 | 107.20382 | 33905 ft | 497 kts | 158° |
| 2026-05-06 14:51 | 18.06954 | 107.23321 | 33902 ft | 497 kts | 158° |
| 2026-05-06 14:51 | 18.00656 | 107.26295 | 33902 ft | 497 kts | 157° |
| 2026-05-06 14:52 | 17.94376 | 107.29295 | 33905 ft | 498 kts | 157° |
| 2026-05-06 14:52 | 17.88069 | 107.32295 | 33906 ft | 498 kts | 157° |
| 2026-05-06 14:53 | 17.81736 | 107.35300 | 33910 ft | 498 kts | 157° |
| 2026-05-06 14:53 | 17.75448 | 107.38280 | 33910 ft | 498 kts | 157° |
| 2026-05-06 14:54 | 17.69142 | 107.41267 | 33908 ft | 498 kts | 157° |
| 2026-05-06 14:54 | 17.62831 | 107.44255 | 33289 ft | 495 kts | 157° |
| 2026-05-06 14:54 | 17.59703 | 107.45734 | 32412 ft | 498 kts | 157° |
| 2026-05-06 14:55 | 17.56516 | 107.47240 | 31246 ft | 503 kts | 157° |
| 2026-05-06 14:55 | 17.53330 | 107.48745 | 29811 ft | 510 kts | 157° |
| 2026-05-06 14:55 | 17.50071 | 107.50285 | 28591 ft | 509 kts | 157° |
| 2026-05-06 14:55 | 17.46854 | 107.51806 | 27767 ft | 502 kts | 157° |
| 2026-05-06 14:56 | 17.43701 | 107.53295 | 27049 ft | 496 kts | 157° |
| 2026-05-06 14:56 | 17.40574 | 107.54771 | 26378 ft | 490 kts | 157° |
| 2026-05-06 14:56 | 17.37461 | 107.56239 | 25706 ft | 485 kts | 157° |
| 2026-05-06 14:56 | 17.34425 | 107.57670 | 25038 ft | 481 kts | 157° |
| 2026-05-06 14:57 | 17.31368 | 107.59111 | 24386 ft | 475 kts | 157° |
| 2026-05-06 14:57 | 17.28401 | 107.60509 | 23775 ft | 470 kts | 156° |
| 2026-05-06 14:57 | 17.25411 | 107.61918 | 23077 ft | 465 kts | 156° |
| 2026-05-06 14:57 | 17.22477 | 107.63300 | 22368 ft | 460 kts | 156° |
| 2026-05-06 14:58 | 17.19592 | 107.64658 | 21653 ft | 455 kts | 156° |
| 2026-05-06 14:58 | 17.16711 | 107.66014 | 20951 ft | 450 kts | 157° |
| 2026-05-06 14:58 | 17.13890 | 107.67342 | 20258 ft | 445 kts | 157° |
| 2026-05-06 14:58 | 17.11079 | 107.68671 | 19570 ft | 440 kts | 156° |
| 2026-05-06 14:59 | 17.08330 | 107.70003 | 18949 ft | 434 kts | 156° |
| 2026-05-06 14:59 | 17.05604 | 107.71337 | 18320 ft | 428 kts | 156° |
| 2026-05-06 14:59 | 17.02908 | 107.72655 | 17670 ft | 421 kts | 156° |
| 2026-05-06 14:59 | 17.00270 | 107.73939 | 17065 ft | 412 kts | 156° |
| 2026-05-06 15:00 | 16.97714 | 107.75180 | 16464 ft | 404 kts | 156° |
| 2026-05-06 15:00 | 16.95176 | 107.76411 | 15873 ft | 397 kts | 156° |
| 2026-05-06 15:00 | 16.92674 | 107.77625 | 15294 ft | 390 kts | 156° |
| 2026-05-06 15:00 | 16.90257 | 107.78796 | 14679 ft | 385 kts | 156° |
| 2026-05-06 15:01 | 16.87867 | 107.79954 | 14163 ft | 377 kts | 156° |
| 2026-05-06 15:01 | 16.85465 | 107.81118 | 13598 ft | 371 kts | 156° |
| 2026-05-06 15:01 | 16.83154 | 107.82237 | 13041 ft | 365 kts | 156° |
| 2026-05-06 15:01 | 16.80848 | 107.83353 | 12785 ft | 370 kts | 156° |
| 2026-05-06 15:02 | 16.78495 | 107.84491 | 12538 ft | 372 kts | 155° |
| 2026-05-06 15:02 | 16.76167 | 107.85616 | 12292 ft | 369 kts | 155° |
| 2026-05-06 15:02 | 16.73857 | 107.86734 | 12054 ft | 368 kts | 155° |
| 2026-05-06 15:02 | 16.71540 | 107.87855 | 11806 ft | 366 kts | 155° |
| 2026-05-06 15:03 | 16.69220 | 107.88976 | 11569 ft | 365 kts | 155° |
| 2026-05-06 15:03 | 16.66915 | 107.90091 | 11386 ft | 366 kts | 155° |
| 2026-05-06 15:03 | 16.64626 | 107.91201 | 11666 ft | 368 kts | 155° |
| 2026-05-06 15:03 | 16.62288 | 107.92335 | 12257 ft | 368 kts | 155° |
| 2026-05-06 15:04 | 16.59981 | 107.93453 | 12743 ft | 370 kts | 155° |
| 2026-05-06 15:04 | 16.57620 | 107.94596 | 13227 ft | 373 kts | 156° |
| 2026-05-06 15:04 | 16.55259 | 107.95739 | 13708 ft | 376 kts | 156° |
| 2026-05-06 15:04 | 16.52890 | 107.96887 | 14123 ft | 378 kts | 155° |
| 2026-05-06 15:05 | 16.50514 | 107.98125 | 14536 ft | 381 kts | 153° |
| 2026-05-06 15:05 | 16.48183 | 107.99411 | 14658 ft | 382 kts | 153° |
| 2026-05-06 15:05 | 16.45830 | 108.00720 | 14751 ft | 383 kts | 153° |
| 2026-05-06 15:05 | 16.43469 | 108.02025 | 14836 ft | 383 kts | 153° |
| 2026-05-06 15:06 | 16.41099 | 108.03323 | 14903 ft | 384 kts | 153° |
| 2026-05-06 15:06 | 16.38836 | 108.04554 | 14907 ft | 383 kts | 153° |
| 2026-05-06 15:06 | 16.36456 | 108.05845 | 14913 ft | 383 kts | 153° |
| 2026-05-06 15:06 | 16.34111 | 108.07114 | 14916 ft | 383 kts | 153° |
| 2026-05-06 15:07 | 16.31743 | 108.08395 | 14920 ft | 383 kts | 153° |
| 2026-05-06 15:07 | 16.29371 | 108.09681 | 14924 ft | 383 kts | 153° |
| 2026-05-06 15:07 | 16.27000 | 108.10966 | 14928 ft | 383 kts | 153° |
| 2026-05-06 15:07 | 16.24641 | 108.12243 | 14928 ft | 383 kts | 153° |
| 2026-05-06 15:08 | 16.22300 | 108.13511 | 14933 ft | 383 kts | 153° |
| 2026-05-06 15:08 | 16.19920 | 108.14796 | 14935 ft | 382 kts | 153° |
| 2026-05-06 15:08 | 16.17555 | 108.16072 | 14934 ft | 382 kts | 153° |
| 2026-05-06 15:08 | 16.15201 | 108.17343 | 14938 ft | 382 kts | 153° |
| 2026-05-06 15:09 | 16.12861 | 108.18608 | 14938 ft | 382 kts | 153° |
| 2026-05-06 15:09 | 16.10495 | 108.19888 | 14940 ft | 382 kts | 153° |
| 2026-05-06 15:09 | 16.08146 | 108.21157 | 14940 ft | 382 kts | 153° |
| 2026-05-06 15:09 | 16.06551 | 108.22017 | 14939 ft | 382 kts | 153° |
| 2026-05-06 15:10 | 16.03509 | 108.23661 | 14939 ft | 382 kts | 153° |
| 2026-05-06 15:10 | 16.01170 | 108.24923 | 14941 ft | 382 kts | 153° |
| 2026-05-06 15:10 | 15.98812 | 108.26197 | 14938 ft | 382 kts | 153° |
| 2026-05-06 15:10 | 15.96445 | 108.27474 | 14936 ft | 382 kts | 153° |
| 2026-05-06 15:11 | 15.94110 | 108.28803 | 14930 ft | 382 kts | 147° |
| 2026-05-06 15:11 | 15.91988 | 108.30450 | 14934 ft | 383 kts | 143° |
| 2026-05-06 15:11 | 15.89860 | 108.32129 | 14932 ft | 383 kts | 143° |
| 2026-05-06 15:11 | 15.87755 | 108.33789 | 14930 ft | 382 kts | 143° |
| 2026-05-06 15:12 | 15.83631 | 108.37045 | 14923 ft | 383 kts | 143° |
| 2026-05-06 15:12 | 15.79382 | 108.40396 | 14925 ft | 382 kts | 143° |
| 2026-05-06 15:12 | 15.75206 | 108.43688 | 14917 ft | 382 kts | 143° |
| 2026-05-06 15:12 | 15.73078 | 108.45365 | 14922 ft | 382 kts | 143° |
| 2026-05-06 15:13 | 15.70985 | 108.47014 | 14920 ft | 381 kts | 143° |
| 2026-05-06 15:13 | 15.68812 | 108.48596 | 14919 ft | 380 kts | 152° |
| 2026-05-06 15:13 | 15.66323 | 108.49550 | 14924 ft | 380 kts | 169° |
| 2026-05-06 15:13 | 15.63704 | 108.49697 | 14922 ft | 380 kts | 186° |
| 2026-05-06 15:14 | 15.61151 | 108.49030 | 14917 ft | 380 kts | 203° |
| 2026-05-06 15:14 | 15.58918 | 108.47615 | 14928 ft | 380 kts | 220° |
| 2026-05-06 15:14 | 15.57175 | 108.45551 | 14921 ft | 381 kts | 237° |
| 2026-05-06 15:14 | 15.56096 | 108.43038 | 14928 ft | 381 kts | 252° |
| 2026-05-06 15:15 | 15.55425 | 108.40401 | 14923 ft | 382 kts | 256° |
| 2026-05-06 15:15 | 15.54727 | 108.37728 | 14927 ft | 382 kts | 253° |
| 2026-05-06 15:15 | 15.53906 | 108.35111 | 14926 ft | 382 kts | 250° |
| 2026-05-06 15:15 | 15.52983 | 108.32539 | 14932 ft | 382 kts | 249° |
| 2026-05-06 15:16 | 15.52333 | 108.30837 | 14931 ft | 382 kts | 248° |
| 2026-05-06 15:16 | 15.51329 | 108.28282 | 14933 ft | 382 kts | 247° |
| 2026-05-06 15:16 | 15.50310 | 108.25720 | 14935 ft | 382 kts | 247° |
| 2026-05-06 15:16 | 15.48961 | 108.22336 | 14938 ft | 382 kts | 247° |
| 2026-05-06 15:17 | 15.47946 | 108.19788 | 14940 ft | 382 kts | 247° |
| 2026-05-06 15:17 | 15.47274 | 108.18096 | 14941 ft | 382 kts | 247° |
| 2026-05-06 15:17 | 15.46256 | 108.15530 | 14943 ft | 382 kts | 247° |
| 2026-05-06 15:17 | 15.45243 | 108.12972 | 14944 ft | 382 kts | 247° |
| 2026-05-06 15:18 | 15.44467 | 108.10373 | 14953 ft | 383 kts | 261° |
| 2026-05-06 15:18 | 15.44436 | 108.07600 | 14950 ft | 383 kts | 278° |
| 2026-05-06 15:18 | 15.45196 | 108.04960 | 14950 ft | 384 kts | 295° |
| 2026-05-06 15:18 | 15.46672 | 108.02676 | 14951 ft | 385 kts | 312° |
| 2026-05-06 15:19 | 15.48757 | 108.00931 | 14945 ft | 385 kts | 329° |
| 2026-05-06 15:19 | 15.51210 | 107.99919 | 14948 ft | 386 kts | 347° |
| 2026-05-06 15:19 | 15.53881 | 107.99701 | 14940 ft | 386 kts | 4° |
| 2026-05-06 15:19 | 15.56515 | 108.00280 | 14940 ft | 386 kts | 17° |
| 2026-05-06 15:20 | 15.59097 | 108.01003 | 14858 ft | 380 kts | 12° |
| 2026-05-06 15:20 | 15.61686 | 108.01354 | 14766 ft | 368 kts | 3° |
| 2026-05-06 15:20 | 15.64175 | 108.01344 | 14644 ft | 353 kts | 356° |
| 2026-05-06 15:20 | 15.66570 | 108.01127 | 14494 ft | 337 kts | 353° |
| 2026-05-06 15:21 | 15.68849 | 108.00821 | 14370 ft | 321 kts | 352° |
| 2026-05-06 15:21 | 15.70980 | 108.00512 | 14236 ft | 305 kts | 353° |
| 2026-05-06 15:21 | 15.73051 | 108.00695 | 13925 ft | 296 kts | 17° |
| 2026-05-06 15:21 | 15.74858 | 108.01687 | 13455 ft | 295 kts | 40° |
| 2026-05-06 15:22 | 15.76111 | 108.03341 | 12952 ft | 292 kts | 65° |
| 2026-05-06 15:22 | 15.76610 | 108.05364 | 12471 ft | 288 kts | 86° |
| 2026-05-06 15:22 | 15.76638 | 108.07416 | 11984 ft | 286 kts | 91° |
| 2026-05-06 15:22 | 15.76330 | 108.09342 | 11505 ft | 283 kts | 111° |
| 2026-05-06 15:23 | 15.75317 | 108.11053 | 11043 ft | 280 kts | 134° |
| 2026-05-06 15:23 | 15.73725 | 108.12184 | 10560 ft | 278 kts | 159° |
| 2026-05-06 15:23 | 15.71839 | 108.12567 | 10079 ft | 275 kts | 174° |
| 2026-05-06 15:23 | 15.69939 | 108.12786 | 9569 ft | 274 kts | 173° |
| 2026-05-06 15:24 | 15.68049 | 108.13023 | 9058 ft | 272 kts | 172° |
| 2026-05-06 15:24 | 15.66810 | 108.13192 | 8714 ft | 270 kts | 172° |
| 2026-05-06 15:25 | 15.61247 | 108.14996 | 7696 ft | 246 kts | 128° |
| 2026-05-06 15:25 | 15.60464 | 108.16614 | 7399 ft | 262 kts | 103° |
| 2026-05-06 15:25 | 15.60403 | 108.18480 | 7101 ft | 263 kts | 83° |
| 2026-05-06 15:25 | 15.60732 | 108.20335 | 6777 ft | 259 kts | 78° |
| 2026-05-06 15:26 | 15.61110 | 108.22133 | 6468 ft | 250 kts | 78° |
| 2026-05-06 15:26 | 15.61573 | 108.23857 | 6151 ft | 241 kts | 63° |
| 2026-05-06 15:26 | 15.62654 | 108.25051 | 6239 ft | 235 kts | 31° |
| 2026-05-06 15:26 | 15.64258 | 108.25539 | 6377 ft | 250 kts | 5° |
| 2026-05-06 15:27 | 15.66024 | 108.25463 | 6471 ft | 257 kts | 353° |
| 2026-05-06 15:27 | 15.67788 | 108.25187 | 6527 ft | 258 kts | 352° |
| 2026-05-06 15:27 | 15.69536 | 108.24922 | 6432 ft | 245 kts | 353° |
| 2026-05-06 15:27 | 15.71101 | 108.24698 | 6282 ft | 228 kts | 353° |
| 2026-05-06 15:28 | 15.72603 | 108.24479 | 6071 ft | 210 kts | 353° |
| 2026-05-06 15:28 | 15.74002 | 108.24276 | 5859 ft | 197 kts | 353° |
| 2026-05-06 15:28 | 15.75316 | 108.24085 | 5649 ft | 184 kts | 353° |
| 2026-05-06 15:28 | 15.76548 | 108.23907 | 5438 ft | 175 kts | 353° |
| 2026-05-06 15:29 | 15.77777 | 108.23729 | 5230 ft | 176 kts | 353° |
| 2026-05-06 15:29 | 15.78932 | 108.23560 | 5000 ft | 161 kts | 353° |
| 2026-05-06 15:29 | 15.80039 | 108.23389 | 4843 ft | 161 kts | 352° |
| 2026-05-06 15:29 | 15.81147 | 108.23227 | 4642 ft | 159 kts | 354° |
| 2026-05-06 15:30 | 15.82257 | 108.23077 | 4434 ft | 161 kts | 353° |
| 2026-05-06 15:30 | 15.83372 | 108.22915 | 4207 ft | 161 kts | 354° |
| 2026-05-06 15:30 | 15.84476 | 108.22753 | 4018 ft | 161 kts | 353° |
| 2026-05-06 15:30 | 15.85583 | 108.22590 | 3810 ft | 161 kts | 352° |
| 2026-05-06 15:31 | 15.86696 | 108.22426 | 3609 ft | 161 kts | 353° |
| 2026-05-06 15:31 | 15.87789 | 108.22268 | 3405 ft | 161 kts | 352° |
| 2026-05-06 15:31 | 15.88895 | 108.22105 | 3201 ft | 160 kts | 352° |
| 2026-05-06 15:32 | 15.91100 | 108.21784 | 2783 ft | 159 kts | 352° |
| 2026-05-06 15:32 | 15.92203 | 108.21622 | 2583 ft | 158 kts | 353° |
| 2026-05-06 15:32 | 15.93298 | 108.21464 | 2382 ft | 160 kts | 353° |
| 2026-05-06 15:32 | 15.94400 | 108.21295 | 2000 ft | 161 kts | 352° |
| 2026-05-06 15:33 | 15.95509 | 108.21094 | 1560 ft | 161 kts | 352° |
| 2026-05-06 15:33 | 15.96608 | 108.20904 | 1168 ft | 159 kts | 352° |
| 2026-05-06 15:33 | 15.97252 | 108.20816 | 1011 ft | 151 kts | 355° |
| 2026-05-06 15:33 | 15.98285 | 108.20724 | 880 ft | 154 kts | 355° |
| 2026-05-06 15:34 | 15.99337 | 108.20579 | 830 ft | 151 kts | 352° |
| 2026-05-06 15:34 | 16.00365 | 108.20411 | 751 ft | 151 kts | 350° |
| 2026-05-06 15:34 | 16.01372 | 108.20242 | 426 ft | 150 kts | 352° |
| 2026-05-06 15:34 | 16.02396 | 108.20107 | 124 ft | 147 kts | 355° |
| 2026-05-06 15:35 | 16.03433 | 108.19966 | 44 ft | 150 kts | 351° |
| 2026-05-06 15:35 | 16.04321 | 108.19836 | 40 ft | 100 kts | 357° |
| 2026-05-06 15:35 | 16.04805 | 108.19773 | 39 ft | 40 kts | 348° |
| 2026-05-06 15:35 | 16.04934 | 108.19761 | 39 ft | 26 kts | 355° |